Time;durP1;ratioP1;P1;durP2;ratioP2;P2;SDS_P1;SDS_P2;PMS_P1;PMS_P2;Temp;Humidity;BMP_temperature;BMP_pressure;BME280_temperature;BME280_humidity;BME280_pressure;Samples;Min_cycle;Max_cycle;Signal;HPM_P1;HPM_P2
2023/03/21 00:00:38;;;;;;;58.97;38.10;;;;;;;;;;6362522;27;20120;-76
2023/03/21 00:03:41;;;;;;;53.35;37.28;;;;;;;;;;6364969;27;20088;-72
2023/03/21 00:06:46;;;;;;;57.08;36.97;;;;;;;;;;6363998;27;20047;-78
2023/03/21 00:09:48;;;;;;;60.22;39.15;;;;;;;;;;6363550;27;20133;-78
2023/03/21 00:12:57;;;;;;;59.55;38.80;;;;;;;;;;6349691;27;20047;-75
2023/03/21 00:16:04;;;;;;;61.03;40.42;;;;;;;;;;6369159;27;20046;-79
2023/03/21 00:19:08;;;;;;;80.70;47.50;;;;;;;;;;6364211;27;20047;-77
2023/03/21 00:22:10;;;;;;;178.80;100.75;;;;;;;;;;6365728;27;20051;-70
2023/03/21 00:25:12;;;;;;;165.23;94.70;;;;;;;;;;6366798;27;20106;-77
2023/03/21 00:28:15;;;;;;;105.78;61.65;;;;;;;;;;6366557;27;20051;-79
2023/03/21 00:31:17;;;;;;;73.03;44.27;;;;;;;;;;6365605;27;20341;-75
2023/03/21 00:34:19;;;;;;;61.20;37.88;;;;;;;;;;6365321;27;20070;-70
2023/03/21 00:37:24;;;;;;;55.58;37.22;;;;;;;;;;6362268;27;20052;-73
2023/03/21 00:40:26;;;;;;;59.10;37.60;;;;;;;;;;6349955;27;20070;-77
2023/03/21 00:43:29;;;;;;;56.72;36.55;;;;;;;;;;6362789;27;20129;-75
2023/03/21 00:46:32;;;;;;;58.15;36.97;;;;;;;;;;6364380;27;20058;-75
2023/03/21 00:49:33;;;;;;;55.55;37.75;;;;;;;;;;6362594;27;20232;-76
2023/03/21 00:52:36;;;;;;;55.83;38.03;;;;;;;;;;6364156;27;20048;-76
2023/03/21 00:55:37;;;;;;;59.22;39.10;;;;;;;;;;6364862;27;20099;-72
2023/03/21 00:58:40;;;;;;;59.78;39.30;;;;;;;;;;6361960;27;20774;-73
2023/03/21 01:01:42;;;;;;;59.22;39.63;;;;;;;;;;6364726;27;20047;-77
2023/03/21 01:04:44;;;;;;;57.92;37.67;;;;;;;;;;6362955;27;20051;-75
2023/03/21 01:07:51;;;;;;;57.60;38.95;;;;;;;;;;6365057;27;20043;-77
2023/03/21 01:11:07;;;;;;;64.07;41.15;;;;;;;;;;6362112;27;20118;-71
2023/03/21 01:14:11;;;;;;;61.35;39.97;;;;;;;;;;6366624;27;20062;-75
2023/03/21 01:17:13;;;;;;;61.17;40.78;;;;;;;;;;6364066;27;20052;-77
2023/03/21 01:20:14;;;;;;;60.22;40.97;;;;;;;;;;6364994;27;20357;-77
2023/03/21 01:23:26;;;;;;;65.18;40.65;;;;;;;;;;6361029;27;20102;-75
2023/03/21 01:26:28;;;;;;;63.33;40.58;;;;;;;;;;6365205;27;20058;-77
2023/03/21 01:29:31;;;;;;;62.00;41.47;;;;;;;;;;6365163;27;20050;-76
2023/03/21 01:32:33;;;;;;;63.50;42.10;;;;;;;;;;6362219;27;20044;-78
2023/03/21 01:38:55;;;;;;;67.38;42.53;;;;;;;;;;6317877;27;20053;-72
2023/03/21 01:41:58;;;;;;;65.90;43.38;;;;;;;;;;6366774;27;20046;-78
2023/03/21 01:45:06;;;;;;;61.70;40.85;;;;;;;;;;6336210;27;20043;-78
2023/03/21 01:48:08;;;;;;;68.88;42.50;;;;;;;;;;6361278;27;20226;-79
2023/03/21 01:51:44;;;;;;;65.55;42.80;;;;;;;;;;6334840;28;20806;-75
2023/03/21 01:54:46;;;;;;;61.33;42.03;;;;;;;;;;6338937;28;20131;-78
2023/03/21 02:01:09;;;;;;;65.75;43.70;;;;;;;;;;6328102;27;20044;-78
2023/03/21 02:04:11;;;;;;;64.35;42.25;;;;;;;;;;6332932;27;20052;-78
2023/03/21 02:07:16;;;;;;;66.20;42.40;;;;;;;;;;6338918;28;20050;-77
2023/03/21 02:10:18;;;;;;;63.63;42.70;;;;;;;;;;6338423;28;20044;-73
2023/03/21 02:13:20;;;;;;;66.95;44.17;;;;;;;;;;6334978;27;20048;-74
2023/03/21 02:16:29;;;;;;;67.50;42.80;;;;;;;;;;6339606;28;20051;-75
2023/03/21 02:19:59;;;;;;;67.95;42.47;;;;;;;;;;6342459;28;20055;-78
2023/03/21 02:23:37;;;;;;;62.00;42.33;;;;;;;;;;6339394;27;20236;-73
2023/03/21 02:27:08;;;;;;;59.63;41.15;;;;;;;;;;6338986;28;20051;-78
2023/03/21 02:34:43;;;;;;;65.75;43.20;;;;;;;;;;6337000;27;20243;-77
2023/03/21 02:38:08;;;;;;;67.32;42.45;;;;;;;;;;6338064;27;20054;-79
2023/03/21 02:41:16;;;;;;;63.15;42.67;;;;;;;;;;6337005;27;20138;-76
2023/03/21 02:44:23;;;;;;;66.47;41.88;;;;;;;;;;6335858;27;20138;-73
2023/03/21 02:47:30;;;;;;;67.60;43.80;;;;;;;;;;6337356;28;20383;-72
2023/03/21 02:50:36;;;;;;;65.10;43.15;;;;;;;;;;6362095;27;20082;-73
2023/03/21 02:53:41;;;;;;;63.65;42.78;;;;;;;;;;6362596;27;20171;-73
2023/03/21 02:56:45;;;;;;;69.70;44.15;;;;;;;;;;6362616;27;20152;-73
2023/03/21 02:59:48;;;;;;;63.40;43.03;;;;;;;;;;6362562;27;20051;-74
2023/03/21 03:02:50;;;;;;;65.68;42.60;;;;;;;;;;6362065;27;20216;-73
2023/03/21 03:05:55;;;;;;;67.32;43.30;;;;;;;;;;6364049;27;20044;-69
2023/03/21 03:09:18;;;;;;;68.07;43.60;;;;;;;;;;6362032;27;20051;-73
2023/03/21 03:12:27;;;;;;;67.80;41.93;;;;;;;;;;6360323;27;20058;-70
2023/03/21 03:15:42;;;;;;;65.05;41.33;;;;;;;;;;6362618;27;20051;-69
2023/03/21 03:18:50;;;;;;;64.13;43.03;;;;;;;;;;6358479;27;20326;-73
2023/03/21 03:21:57;;;;;;;63.83;42.17;;;;;;;;;;6362443;27;20062;-73
2023/03/21 03:25:03;;;;;;;63.50;42.00;;;;;;;;;;6361357;27;20318;-73
2023/03/21 03:28:05;;;;;;;61.30;42.33;;;;;;;;;;6362753;27;20375;-71
2023/03/21 03:31:10;;;;;;;65.25;42.05;;;;;;;;;;6360986;27;20046;-73
2023/03/21 03:34:15;;;;;;;67.90;43.85;;;;;;;;;;6357887;27;20362;-73
2023/03/21 03:37:20;;;;;;;64.90;44.80;;;;;;;;;;6361928;27;20043;-70
2023/03/21 03:40:27;;;;;;;65.50;42.63;;;;;;;;;;6358799;27;20433;-73
2023/03/21 03:43:34;;;;;;;65.38;43.97;;;;;;;;;;6338327;27;20415;-73
2023/03/21 03:46:41;;;;;;;73.38;45.17;;;;;;;;;;6354549;27;20332;-72
2023/03/21 03:49:47;;;;;;;71.65;43.78;;;;;;;;;;6360899;27;20050;-74
2023/03/21 03:52:52;;;;;;;71.75;45.35;;;;;;;;;;6360097;27;20051;-71
2023/03/21 03:55:56;;;;;;;69.25;44.92;;;;;;;;;;6363887;27;20044;-73
2023/03/21 03:59:03;;;;;;;71.38;44.40;;;;;;;;;;6361534;27;20039;-72
2023/03/21 04:02:05;;;;;;;72.82;44.85;;;;;;;;;;6360479;27;20047;-73
2023/03/21 04:05:12;;;;;;;66.65;45.00;;;;;;;;;;6361634;27;20047;-74
2023/03/21 04:08:16;;;;;;;71.60;45.83;;;;;;;;;;6363331;27;20376;-74
2023/03/21 04:11:20;;;;;;;70.93;44.80;;;;;;;;;;6360854;27;20067;-72
2023/03/21 04:14:28;;;;;;;67.13;44.50;;;;;;;;;;6350467;27;20059;-73
2023/03/21 04:17:31;;;;;;;70.32;44.67;;;;;;;;;;6365151;27;20097;-73
2023/03/21 04:20:33;;;;;;;68.68;45.63;;;;;;;;;;6363333;27;20055;-73
2023/03/21 04:23:35;;;;;;;70.38;42.75;;;;;;;;;;6364255;27;20063;-73
2023/03/21 04:26:38;;;;;;;74.20;46.15;;;;;;;;;;6361350;27;20059;-72
2023/03/21 04:29:40;;;;;;;77.50;47.20;;;;;;;;;;6363898;27;20115;-73
2023/03/21 04:32:42;;;;;;;77.85;47.05;;;;;;;;;;6366372;27;20054;-73
2023/03/21 04:35:44;;;;;;;72.05;46.25;;;;;;;;;;6365720;27;20356;-73
2023/03/21 04:38:47;;;;;;;76.65;46.72;;;;;;;;;;6363360;27;20205;-72
2023/03/21 04:41:50;;;;;;;72.45;46.50;;;;;;;;;;6366079;27;20051;-69
2023/03/21 04:44:52;;;;;;;81.10;47.77;;;;;;;;;;6365971;27;20074;-73
2023/03/21 04:47:54;;;;;;;81.07;46.42;;;;;;;;;;6363120;27;20051;-69
2023/03/21 04:50:56;;;;;;;73.22;47.90;;;;;;;;;;6363419;27;20055;-73
2023/03/21 04:53:58;;;;;;;72.30;47.45;;;;;;;;;;6364731;27;20832;-73
2023/03/21 04:57:01;;;;;;;74.97;47.17;;;;;;;;;;6360122;27;20056;-73
2023/03/21 05:00:08;;;;;;;74.35;47.25;;;;;;;;;;6366581;27;20039;-73
2023/03/21 05:03:14;;;;;;;73.93;47.25;;;;;;;;;;6364517;27;20047;-73
2023/03/21 05:06:16;;;;;;;72.30;47.30;;;;;;;;;;6362471;27;20331;-74
2023/03/21 05:09:18;;;;;;;80.53;48.78;;;;;;;;;;6360230;27;20052;-76
2023/03/21 05:12:21;;;;;;;78.10;48.63;;;;;;;;;;6368287;27;20063;-80
2023/03/21 05:15:23;;;;;;;84.18;50.15;;;;;;;;;;6362249;27;20205;-78
2023/03/21 05:18:25;;;;;;;76.13;47.70;;;;;;;;;;6363808;27;20044;-79
2023/03/21 05:21:40;;;;;;;76.53;48.40;;;;;;;;;;6363599;27;20071;-79
2023/03/21 05:24:42;;;;;;;78.85;50.10;;;;;;;;;;6362156;27;20302;-75
2023/03/21 05:27:52;;;;;;;79.57;49.50;;;;;;;;;;6364782;27;20042;-73
2023/03/21 05:30:54;;;;;;;80.88;48.53;;;;;;;;;;6362408;27;20068;-73
2023/03/21 05:33:56;;;;;;;81.25;48.53;;;;;;;;;;6367289;27;20332;-77
2023/03/21 05:36:58;;;;;;;81.97;50.45;;;;;;;;;;6362639;27;20082;-76
2023/03/21 05:40:00;;;;;;;81.40;51.13;;;;;;;;;;6361814;27;20293;-77
2023/03/21 05:43:03;;;;;;;77.63;49.85;;;;;;;;;;6365270;27;20051;-78
2023/03/21 05:46:05;;;;;;;84.20;50.65;;;;;;;;;;6364581;27;20051;-78
2023/03/21 05:49:07;;;;;;;76.70;51.72;;;;;;;;;;6351295;27;20339;-76
2023/03/21 05:52:10;;;;;;;82.63;50.92;;;;;;;;;;6337414;28;20126;-76
2023/03/21 05:55:11;;;;;;;84.07;51.60;;;;;;;;;;6336762;28;20114;-75
2023/03/21 05:58:15;;;;;;;78.80;49.38;;;;;;;;;;6339838;27;20153;-76
2023/03/21 06:01:16;;;;;;;79.72;49.55;;;;;;;;;;6340813;27;20136;-78
2023/03/21 06:04:18;;;;;;;87.55;50.42;;;;;;;;;;6335899;27;20051;-77
2023/03/21 06:07:21;;;;;;;82.50;49.80;;;;;;;;;;6337474;27;20058;-74
2023/03/21 06:10:23;;;;;;;81.40;49.58;;;;;;;;;;6332702;27;20050;-72
2023/03/21 06:13:26;;;;;;;82.30;48.50;;;;;;;;;;6342070;27;20051;-77
2023/03/21 06:16:28;;;;;;;93.97;49.83;;;;;;;;;;6339853;27;20062;-77
2023/03/21 06:19:30;;;;;;;86.47;49.17;;;;;;;;;;6339401;28;20067;-77
2023/03/21 06:22:33;;;;;;;84.43;50.53;;;;;;;;;;6338674;28;20063;-72
2023/03/21 06:25:35;;;;;;;90.75;50.65;;;;;;;;;;6338734;28;20051;-77
2023/03/21 06:28:38;;;;;;;71.97;46.60;;;;;;;;;;6333453;28;20043;-78
2023/03/21 06:31:40;;;;;;;71.93;46.43;;;;;;;;;;6337964;28;20052;-70
2023/03/21 06:34:42;;;;;;;72.63;42.35;;;;;;;;;;6338929;28;20620;-77
2023/03/21 06:37:44;;;;;;;68.70;42.30;;;;;;;;;;6336798;28;20059;-77
2023/03/21 06:40:46;;;;;;;68.00;42.83;;;;;;;;;;6335363;28;20044;-72
2023/03/21 06:43:49;;;;;;;66.13;41.80;;;;;;;;;;6334907;28;20248;-73
2023/03/21 06:46:52;;;;;;;69.75;42.38;;;;;;;;;;6337038;28;20053;-76
2023/03/21 06:49:53;;;;;;;59.55;40.65;;;;;;;;;;6336035;28;20312;-77
2023/03/21 06:52:56;;;;;;;63.60;40.75;;;;;;;;;;6335488;28;20240;-77
2023/03/21 06:55:58;;;;;;;65.93;41.22;;;;;;;;;;6336253;28;20040;-76
2023/03/21 06:59:01;;;;;;;64.85;43.22;;;;;;;;;;6336731;28;20044;-77
2023/03/21 07:02:03;;;;;;;70.15;42.90;;;;;;;;;;6340342;28;20290;-77
2023/03/21 07:05:06;;;;;;;63.45;42.90;;;;;;;;;;6335693;28;20059;-77
2023/03/21 07:08:09;;;;;;;66.88;43.92;;;;;;;;;;6336578;28;20060;-78
2023/03/21 07:11:11;;;;;;;68.57;45.22;;;;;;;;;;6334248;28;20417;-76
2023/03/21 07:14:14;;;;;;;70.55;43.08;;;;;;;;;;6334105;28;20060;-76
2023/03/21 07:17:16;;;;;;;62.13;42.70;;;;;;;;;;6336560;28;20050;-77
2023/03/21 07:20:18;;;;;;;68.63;43.45;;;;;;;;;;6337183;28;20051;-74
2023/03/21 07:23:21;;;;;;;68.18;41.83;;;;;;;;;;6333898;28;20691;-70
2023/03/21 07:26:22;;;;;;;63.10;43.63;;;;;;;;;;6335280;28;20463;-75
2023/03/21 07:29:25;;;;;;;65.18;43.65;;;;;;;;;;6337574;28;20343;-74
2023/03/21 07:32:28;;;;;;;66.70;45.83;;;;;;;;;;6334801;28;20322;-77
2023/03/21 07:35:30;;;;;;;67.50;43.20;;;;;;;;;;6336532;28;20413;-77
2023/03/21 07:38:32;;;;;;;73.63;46.25;;;;;;;;;;6338874;28;20048;-77
2023/03/21 07:41:33;;;;;;;71.22;46.42;;;;;;;;;;6336325;28;21384;-77
2023/03/21 07:44:36;;;;;;;72.55;46.42;;;;;;;;;;6332577;28;20492;-78
2023/03/21 07:47:38;;;;;;;68.90;45.80;;;;;;;;;;6339043;28;20238;-70
2023/03/21 07:50:40;;;;;;;70.25;46.47;;;;;;;;;;6363090;27;20096;-75
2023/03/21 07:53:44;;;;;;;64.97;46.78;;;;;;;;;;6366727;27;20051;-77
2023/03/21 07:56:45;;;;;;;72.22;46.38;;;;;;;;;;6364668;27;20050;-78
2023/03/21 07:59:48;;;;;;;68.88;47.42;;;;;;;;;;6364558;27;20084;-77
2023/03/21 08:02:53;;;;;;;69.90;48.93;;;;;;;;;;6365420;27;20231;-78
2023/03/21 08:05:55;;;;;;;72.25;48.08;;;;;;;;;;6366144;27;20354;-75
2023/03/21 08:08:57;;;;;;;74.05;49.05;;;;;;;;;;6365293;27;20063;-76
2023/03/21 08:11:59;;;;;;;62.47;46.97;;;;;;;;;;6367005;27;20117;-78
2023/03/21 08:15:02;;;;;;;72.35;49.45;;;;;;;;;;6363765;27;20043;-75
2023/03/21 08:18:04;;;;;;;72.15;49.75;;;;;;;;;;6367942;27;20059;-78
2023/03/21 08:21:06;;;;;;;70.93;47.22;;;;;;;;;;6362349;27;20051;-78
2023/03/21 08:24:08;;;;;;;73.25;48.35;;;;;;;;;;6363379;27;20243;-76
2023/03/21 08:27:10;;;;;;;67.75;48.60;;;;;;;;;;6366290;27;20055;-78
2023/03/21 08:30:16;;;;;;;72.68;49.03;;;;;;;;;;6362859;27;20055;-75
2023/03/21 08:33:18;;;;;;;69.18;49.17;;;;;;;;;;6370350;27;20077;-74
2023/03/21 08:36:20;;;;;;;71.88;49.72;;;;;;;;;;6364541;27;20066;-77
2023/03/21 08:39:23;;;;;;;71.03;50.80;;;;;;;;;;6366544;27;20067;-78
2023/03/21 08:42:25;;;;;;;66.10;48.63;;;;;;;;;;6366299;27;20047;-73
2023/03/21 08:45:28;;;;;;;78.30;50.38;;;;;;;;;;6364551;27;20059;-77
2023/03/21 08:48:30;;;;;;;76.40;53.25;;;;;;;;;;6365998;27;20055;-76
2023/03/21 08:51:32;;;;;;;68.78;50.35;;;;;;;;;;6365935;27;20681;-78
2023/03/21 08:54:34;;;;;;;66.88;49.47;;;;;;;;;;6363422;27;20275;-78
2023/03/21 08:57:35;;;;;;;66.10;50.17;;;;;;;;;;6362377;27;20057;-78
2023/03/21 09:00:38;;;;;;;69.07;52.22;;;;;;;;;;6364415;27;20069;-78
2023/03/21 09:03:40;;;;;;;69.95;51.92;;;;;;;;;;6364912;27;20059;-78
2023/03/21 09:06:44;;;;;;;74.80;51.60;;;;;;;;;;6364397;27;20051;-78
2023/03/21 09:09:46;;;;;;;70.70;51.03;;;;;;;;;;6368333;27;20088;-78
2023/03/21 09:12:48;;;;;;;72.68;51.75;;;;;;;;;;6364556;27;20378;-77
2023/03/21 09:15:51;;;;;;;66.18;50.97;;;;;;;;;;6363581;27;20114;-78
2023/03/21 09:18:54;;;;;;;70.53;53.08;;;;;;;;;;6365202;27;20055;-78
2023/03/21 09:21:56;;;;;;;74.43;53.80;;;;;;;;;;6361961;27;20051;-77
2023/03/21 09:24:58;;;;;;;63.58;45.83;;;;;;;;;;6360933;27;20083;-77
2023/03/21 09:28:00;;;;;;;61.28;47.00;;;;;;;;;;6360334;27;20073;-78
2023/03/21 09:31:05;;;;;;;70.20;50.60;;;;;;;;;;6362104;27;20365;-78
2023/03/21 09:34:07;;;;;;;66.07;50.28;;;;;;;;;;6361848;27;20477;-77
2023/03/21 09:37:12;;;;;;;78.15;50.15;;;;;;;;;;6367659;27;20178;-77
2023/03/21 09:40:19;;;;;;;66.90;50.50;;;;;;;;;;6364003;27;20050;-77
2023/03/21 09:43:31;;;;;;;63.63;48.80;;;;;;;;;;6364210;27;20172;-78
2023/03/21 09:46:37;;;;;;;66.57;51.30;;;;;;;;;;6362496;27;20039;-79
2023/03/21 09:49:42;;;;;;;68.07;52.08;;;;;;;;;;6360036;27;20051;-77
2023/03/21 09:52:48;;;;;;;63.60;50.22;;;;;;;;;;6359555;27;20070;-77
2023/03/21 09:55:52;;;;;;;64.70;49.38;;;;;;;;;;6364389;27;20055;-78
2023/03/21 09:58:58;;;;;;;66.10;48.67;;;;;;;;;;6363702;27;20056;-78
2023/03/21 10:02:02;;;;;;;61.83;49.03;;;;;;;;;;6363562;27;20200;-78
2023/03/21 10:05:11;;;;;;;65.13;50.17;;;;;;;;;;6363247;27;20761;-77
2023/03/21 10:08:21;;;;;;;65.60;50.35;;;;;;;;;;6363239;27;20252;-76
2023/03/21 10:11:26;;;;;;;60.53;49.33;;;;;;;;;;6358946;27;20341;-78
2023/03/21 10:14:29;;;;;;;61.08;48.13;;;;;;;;;;6364362;27;20185;-78
2023/03/21 10:17:40;;;;;;;62.10;47.60;;;;;;;;;;6363283;27;20050;-76
2023/03/21 10:20:42;;;;;;;65.10;46.72;;;;;;;;;;6360782;27;20262;-77
2023/03/21 10:23:44;;;;;;;55.33;40.50;;;;;;;;;;6364419;27;20066;-78
2023/03/21 10:26:47;;;;;;;53.67;41.53;;;;;;;;;;6362979;27;20055;-77
2023/03/21 10:29:51;;;;;;;52.70;42.47;;;;;;;;;;6363519;27;20051;-78
2023/03/21 10:32:56;;;;;;;54.35;43.10;;;;;;;;;;6361211;27;20051;-78
2023/03/21 10:36:00;;;;;;;51.88;41.80;;;;;;;;;;6362671;27;20096;-77
2023/03/21 10:39:05;;;;;;;52.05;41.03;;;;;;;;;;6365473;27;20332;-77
2023/03/21 10:42:15;;;;;;;50.75;40.90;;;;;;;;;;6362167;27;20051;-78
2023/03/21 10:45:18;;;;;;;49.05;39.97;;;;;;;;;;6362507;27;20039;-73
2023/03/21 10:48:22;;;;;;;51.28;39.25;;;;;;;;;;6358729;27;20055;-78
2023/03/21 10:51:28;;;;;;;44.05;35.13;;;;;;;;;;6362523;27;20059;-78
2023/03/21 10:54:32;;;;;;;42.53;26.50;;;;;;;;;;6361163;27;20146;-78
2023/03/21 10:57:36;;;;;;;32.72;24.83;;;;;;;;;;6362599;27;20103;-75
2023/03/21 11:00:40;;;;;;;40.53;31.73;;;;;;;;;;6362673;27;20300;-76
2023/03/21 11:03:47;;;;;;;34.28;28.15;;;;;;;;;;6361848;27;20054;-79
2023/03/21 11:06:53;;;;;;;37.20;30.73;;;;;;;;;;6358739;27;20043;-78
2023/03/21 11:09:57;;;;;;;37.58;28.65;;;;;;;;;;6361515;27;20063;-78
2023/03/21 11:13:03;;;;;;;33.30;27.80;;;;;;;;;;6361029;27;20046;-78
2023/03/21 11:16:08;;;;;;;32.22;24.83;;;;;;;;;;6363817;27;20039;-76
2023/03/21 11:19:16;;;;;;;33.60;28.55;;;;;;;;;;6363724;28;20061;-76
2023/03/21 11:22:19;;;;;;;35.97;25.90;;;;;;;;;;6359325;27;20047;-78
2023/03/21 11:25:23;;;;;;;30.40;25.23;;;;;;;;;;6358957;27;20059;-77
2023/03/21 11:28:32;;;;;;;33.70;27.60;;;;;;;;;;6360693;28;20059;-78
2023/03/21 11:31:38;;;;;;;31.83;25.05;;;;;;;;;;6358406;27;20043;-78
2023/03/21 11:34:46;;;;;;;29.98;24.83;;;;;;;;;;6361798;28;20126;-78
2023/03/21 11:37:52;;;;;;;32.85;25.92;;;;;;;;;;6359413;28;20307;-78
2023/03/21 11:40:57;;;;;;;27.48;23.83;;;;;;;;;;6363408;28;20346;-77
2023/03/21 11:44:00;;;;;;;32.75;25.85;;;;;;;;;;6360655;27;20083;-78
2023/03/21 11:47:02;;;;;;;28.30;23.23;;;;;;;;;;6358724;27;20052;-78
2023/03/21 11:50:23;;;;;;;31.20;26.02;;;;;;;;;;6360073;28;20077;-79
2023/03/21 11:53:34;;;;;;;31.10;25.58;;;;;;;;;;6361412;27;20284;-77
2023/03/21 11:56:39;;;;;;;34.40;27.63;;;;;;;;;;6361989;27;20243;-78
2023/03/21 11:59:44;;;;;;;29.17;24.15;;;;;;;;;;6361967;28;20353;-76
2023/03/21 12:03:06;;;;;;;29.35;24.55;;;;;;;;;;6357736;27;20057;-71
2023/03/21 12:06:17;;;;;;;28.42;24.30;;;;;;;;;;6355062;27;20186;-71
2023/03/21 12:09:29;;;;;;;27.17;22.67;;;;;;;;;;6365180;28;20050;-75
2023/03/21 12:12:38;;;;;;;25.15;21.67;;;;;;;;;;6360177;27;20129;-79
2023/03/21 12:15:44;;;;;;;27.02;23.52;;;;;;;;;;6359047;28;20043;-78
2023/03/21 12:18:59;;;;;;;27.13;23.40;;;;;;;;;;6361456;27;20043;-77
2023/03/21 12:22:05;;;;;;;31.67;25.35;;;;;;;;;;6363494;27;20051;-76
2023/03/21 12:25:11;;;;;;;28.35;23.38;;;;;;;;;;6359325;28;20051;-78
2023/03/21 12:28:23;;;;;;;29.25;26.17;;;;;;;;;;6360629;27;20055;-77
2023/03/21 12:31:30;;;;;;;33.17;27.87;;;;;;;;;;6360838;27;20253;-78
2023/03/21 12:35:03;;;;;;;32.22;26.52;;;;;;;;;;6367573;27;20440;-77
2023/03/21 12:38:09;;;;;;;;;;;;;;;;;;6365668;27;20129;-78
2023/03/21 12:41:20;;;;;;;26.65;23.45;;;;;;;;;;6366037;27;19923;-73
2023/03/21 12:44:24;;;;;;;30.45;24.00;;;;;;;;;;6365897;27;20047;-77
2023/03/21 12:47:27;;;;;;;27.90;24.63;;;;;;;;;;6362494;27;20055;-77
2023/03/21 12:50:35;;;;;;;27.27;22.98;;;;;;;;;;6365210;27;20051;-78
2023/03/21 12:53:47;;;;;;;25.48;20.40;;;;;;;;;;6366341;27;20243;-77
2023/03/21 12:56:52;;;;;;;25.42;20.73;;;;;;;;;;6364773;27;20059;-78
2023/03/21 12:59:58;;;;;;;21.50;19.15;;;;;;;;;;6361806;27;20103;-79
2023/03/21 13:03:02;;;;;;;20.58;17.15;;;;;;;;;;6364547;27;20085;-79
2023/03/21 13:06:05;;;;;;;25.00;21.25;;;;;;;;;;6367736;27;20062;-79
2023/03/21 13:09:10;;;;;;;;;;;;;;;;;;6367750;27;20441;-78
2023/03/21 13:12:22;;;;;;;73.78;56.33;;;;;;;;;;6371315;27;19919;-79
2023/03/21 13:15:32;;;;;;;51.20;38.08;;;;;;;;;;6372081;27;20076;-79
2023/03/21 13:18:55;;;;;;;52.30;39.15;;;;;;;;;;6371210;27;20173;-79
2023/03/21 13:22:01;;;;;;;41.07;30.53;;;;;;;;;;6367001;27;20252;-79
2023/03/21 13:25:07;;;;;;;69.25;48.35;;;;;;;;;;6368847;27;20051;-78
2023/03/21 13:28:18;;;;;;;47.60;38.28;;;;;;;;;;6369618;27;20054;-79
2023/03/21 13:31:21;;;;;;;34.65;27.38;;;;;;;;;;6366775;27;20043;-78
2023/03/21 13:34:23;;;;;;;21.33;19.10;;;;;;;;;;6365607;27;20201;-79
2023/03/21 13:37:28;;;;;;;27.27;20.40;;;;;;;;;;6371136;27;20245;-79
2023/03/21 13:40:37;;;;;;;24.13;20.73;;;;;;;;;;6367904;27;20235;-79
2023/03/21 13:43:44;;;;;;;23.95;19.17;;;;;;;;;;6365057;27;20043;-77
2023/03/21 13:46:53;;;;;;;21.20;18.90;;;;;;;;;;6363977;27;20070;-77
2023/03/21 13:50:20;;;;;;;24.17;19.13;;;;;;;;;;6364404;27;20054;-78
2023/03/21 13:53:30;;;;;;;24.33;17.48;;;;;;;;;;6365100;27;20114;-79
2023/03/21 13:56:49;;;;;;;18.13;15.55;;;;;;;;;;6366928;27;20111;-79
2023/03/21 14:00:16;;;;;;;23.60;18.35;;;;;;;;;;6366528;27;20062;-78
2023/03/21 14:03:19;;;;;;;19.58;17.15;;;;;;;;;;6364690;27;20069;-76
2023/03/21 14:06:24;;;;;;;19.15;16.80;;;;;;;;;;6361676;27;20043;-76
2023/03/21 14:09:29;;;;;;;20.80;17.30;;;;;;;;;;6365515;27;20256;-73
2023/03/21 14:12:40;;;;;;;16.30;13.90;;;;;;;;;;6361398;27;20056;-79
2023/03/21 14:15:44;;;;;;;18.65;15.13;;;;;;;;;;6364761;27;20275;-80
2023/03/21 14:18:48;;;;;;;15.55;13.95;;;;;;;;;;6364850;27;20062;-79
2023/03/21 14:21:52;;;;;;;21.40;15.70;;;;;;;;;;6361872;27;20070;-71
2023/03/21 14:24:58;;;;;;;17.58;15.18;;;;;;;;;;6362373;27;20047;-78
2023/03/21 14:28:04;;;;;;;18.35;16.45;;;;;;;;;;6363282;27;20221;-79
2023/03/21 14:31:12;;;;;;;22.33;17.70;;;;;;;;;;6362609;27;20061;-79
2023/03/21 14:34:15;;;;;;;19.13;14.65;;;;;;;;;;6362835;27;20328;-79
2023/03/21 14:37:28;;;;;;;18.67;16.67;;;;;;;;;;6362920;27;20071;-79
2023/03/21 14:40:30;;;;;;;20.70;16.45;;;;;;;;;;6360453;27;20147;-77
2023/03/21 14:43:33;;;;;;;20.03;15.40;;;;;;;;;;6362454;27;20055;-77
2023/03/21 14:46:35;;;;;;;22.42;16.15;;;;;;;;;;6362620;27;20061;-78
2023/03/21 14:49:45;;;;;;;19.98;17.23;;;;;;;;;;6363542;27;20097;-79
2023/03/21 14:52:47;;;;;;;17.88;15.95;;;;;;;;;;6360439;27;20059;-76
2023/03/21 14:55:53;;;;;;;19.30;16.52;;;;;;;;;;6350601;27;20059;-75
2023/03/21 14:58:59;;;;;;;22.38;14.27;;;;;;;;;;6366972;27;20062;-72
2023/03/21 15:02:23;;;;;;;19.15;16.05;;;;;;;;;;6367346;27;20063;-82
2023/03/21 15:05:26;;;;;;;21.10;16.25;;;;;;;;;;6365592;27;20047;-80
2023/03/21 15:08:39;;;;;;;20.48;15.93;;;;;;;;;;6352054;27;20047;-78
2023/03/21 15:11:48;;;;;;;;;;;;;;;;;;6357847;27;20042;-80
2023/03/21 15:14:52;;;;;;;19.92;15.57;;;;;;;;;;6362361;27;20458;-79
2023/03/21 15:17:57;;;;;;;20.33;16.27;;;;;;;;;;6362240;27;20050;-79
2023/03/21 15:21:02;;;;;;;22.17;17.85;;;;;;;;;;6360239;27;20105;-73
2023/03/21 15:24:07;;;;;;;30.45;22.85;;;;;;;;;;6360548;27;20111;-74
2023/03/21 15:27:13;;;;;;;28.20;21.92;;;;;;;;;;6361255;28;20069;-74
2023/03/21 15:30:22;;;;;;;19.35;14.93;;;;;;;;;;6360438;27;20054;-76
2023/03/21 15:33:25;;;;;;;17.63;13.50;;;;;;;;;;6360947;27;20089;-79
2023/03/21 15:36:29;;;;;;;27.75;14.98;;;;;;;;;;6361313;27;20064;-78
2023/03/21 15:39:33;;;;;;;20.15;14.95;;;;;;;;;;6360047;28;20292;-79
2023/03/21 15:42:38;;;;;;;19.58;14.63;;;;;;;;;;6359176;28;20071;-77
2023/03/21 15:45:48;;;;;;;23.55;14.43;;;;;;;;;;6358369;27;20055;-80
2023/03/21 15:49:07;;;;;;;17.75;14.70;;;;;;;;;;6359415;27;20330;-79
2023/03/21 15:52:13;;;;;;;19.23;14.13;;;;;;;;;;6362629;28;20361;-79
2023/03/21 15:55:24;;;;;;;22.08;14.85;;;;;;;;;;6360477;28;20045;-76
2023/03/21 15:58:33;;;;;;;18.63;13.35;;;;;;;;;;6358722;27;20075;-79
2023/03/21 16:01:37;;;;;;;32.38;15.73;;;;;;;;;;6363708;28;20063;-77
2023/03/21 16:04:55;;;;;;;18.23;13.82;;;;;;;;;;6358680;28;20194;-78
2023/03/21 16:08:03;;;;;;;25.23;14.05;;;;;;;;;;6361480;27;20051;-77
2023/03/21 16:11:15;;;;;;;25.05;15.27;;;;;;;;;;6365851;27;20055;-72
2023/03/21 16:14:17;;;;;;;25.27;15.40;;;;;;;;;;6367307;27;20111;-79
2023/03/21 16:17:36;;;;;;;30.40;14.30;;;;;;;;;;6361130;27;20128;-79
2023/03/21 16:20:41;;;;;;;19.05;12.93;;;;;;;;;;6366380;27;20150;-75
2023/03/21 16:23:43;;;;;;;108.55;71.97;;;;;;;;;;6367100;27;20234;-74
2023/03/21 16:26:49;;;;;;;57.30;36.60;;;;;;;;;;6366585;27;20047;-77
2023/03/21 16:29:51;;;;;;;18.77;12.90;;;;;;;;;;6361960;27;20124;-78
2023/03/21 16:32:55;;;;;;;23.55;15.25;;;;;;;;;;6365299;27;20071;-77
2023/03/21 16:35:59;;;;;;;19.65;14.40;;;;;;;;;;6365467;27;20224;-76
2023/03/21 16:39:01;;;;;;;16.60;13.52;;;;;;;;;;6364349;27;20054;-77
2023/03/21 16:42:03;;;;;;;36.17;13.77;;;;;;;;;;6367965;27;20074;-76
2023/03/21 16:45:05;;;;;;;25.50;14.38;;;;;;;;;;6364169;27;20043;-75
2023/03/21 16:48:15;;;;;;;20.55;14.50;;;;;;;;;;6366070;27;20058;-74
2023/03/21 16:51:20;;;;;;;24.33;14.65;;;;;;;;;;6367188;27;20097;-76
2023/03/21 16:54:22;;;;;;;32.60;15.10;;;;;;;;;;6364858;27;20043;-78
2023/03/21 16:57:27;;;;;;;22.65;13.90;;;;;;;;;;6363708;27;20056;-75
2023/03/21 17:00:39;;;;;;;21.80;13.95;;;;;;;;;;6361050;27;20052;-78
2023/03/21 17:03:42;;;;;;;21.92;14.18;;;;;;;;;;6364924;27;20116;-76
2023/03/21 17:06:46;;;;;;;28.38;14.05;;;;;;;;;;6361767;27;20058;-80
2023/03/21 17:09:48;;;;;;;24.73;15.43;;;;;;;;;;6368620;27;20341;-75
2023/03/21 17:12:50;;;;;;;24.13;14.45;;;;;;;;;;6339390;27;20060;-76
2023/03/21 17:15:52;;;;;;;21.30;13.93;;;;;;;;;;6363459;27;20059;-76
2023/03/21 17:18:56;;;;;;;25.13;15.60;;;;;;;;;;6363762;27;20054;-77
2023/03/21 17:21:57;;;;;;;25.52;14.77;;;;;;;;;;6364260;27;20114;-75
2023/03/21 17:25:01;;;;;;;21.75;14.20;;;;;;;;;;6362467;27;20230;-74
2023/03/21 17:28:03;;;;;;;22.95;14.15;;;;;;;;;;6366209;27;20075;-79
2023/03/21 17:31:06;;;;;;;27.67;15.60;;;;;;;;;;6361293;27;20231;-76
2023/03/21 17:34:09;;;;;;;;;;;;;;;;;;6364196;27;20040;-75
2023/03/21 17:37:12;;;;;;;26.35;14.50;;;;;;;;;;6359442;27;19950;-77
2023/03/21 17:40:14;;;;;;;25.05;14.85;;;;;;;;;;6366424;27;20050;-80
2023/03/21 17:43:19;;;;;;;21.48;15.32;;;;;;;;;;6363781;27;20165;-75
2023/03/21 17:46:22;;;;;;;26.05;15.07;;;;;;;;;;6352641;27;20108;-75
2023/03/21 17:49:25;;;;;;;27.77;16.52;;;;;;;;;;6362067;27;20062;-75
2023/03/21 17:52:27;;;;;;;29.95;16.27;;;;;;;;;;6364721;27;20046;-75
2023/03/21 17:55:29;;;;;;;28.00;16.75;;;;;;;;;;6364346;27;20057;-77
2023/03/21 17:58:31;;;;;;;29.10;16.45;;;;;;;;;;6361287;27;20051;-76
2023/03/21 18:01:34;;;;;;;26.92;15.73;;;;;;;;;;6364629;27;20371;-75
2023/03/21 18:04:37;;;;;;;24.40;16.55;;;;;;;;;;6361464;27;20086;-77
2023/03/21 18:07:45;;;;;;;;;;;;;;;;;;6361947;27;20052;-77
2023/03/21 18:10:56;;;;;;;25.65;15.52;;;;;;;;;;6363947;27;19961;-75